Aviation Digital Data Service (ADDS)

Output produced by METARs form (1756 UTC 24 April 2014)
found at http://www.aviationweather.gov/adds/metars/
 
KSBY 241654Z 30015G19KT 10SM CLR 16/M06 A3005 RMK AO2 SLP177 T01561061
KSBY 241727Z 2418/2518 31013G17KT P6SM SCT150 
     FM242300 29003KT P6SM FEW250 
     FM251400 16013KT P6SM BKN250